Terminal Aerodrome Forecast
Issued by NWS

Home | Current Version | Previous Version | Text Only | Print | Product List | Glossary On
Versions: 1 2 3 4 5 6 7 8 9 10 11 12 13 14 15 16 17
000
FTUS43 KDLH 292300
TAFHIB
TAF
KHIB 292320Z 3000/3024 28009KT P6SM VCTS SCT060CB BKN100
     FM300200 31004KT P6SM SCT060
     FM301100 30005KT 5SM BR SCT070
     FM301500 32008KT P6SM SCT050
     FM301900 32011KT P6SM VCTS SCT040CB BKN070=

USA.gov is the U.S. government's official web portal to all federal, state and local government web resources and services.